Time;durP1;ratioP1;P1;durP2;ratioP2;P2;SDS_P1;SDS_P2;PMS_P1;PMS_P2;Temp;Humidity;BMP_temperature;BMP_pressure;BME280_temperature;BME280_humidity;BME280_pressure;Samples;Min_cycle;Max_cycle;Signal;HPM_P1;HPM_P2
2022/06/29 00:00:29;;;;;;;;;;;;;;;19.25;94.60;98334.90;1689279;85;20182;-83
2022/06/29 00:02:57;;;;;;;;;;;;;;;19.20;95.24;98333.13;1655102;85;20203;-88
2022/06/29 00:05:24;;;;;;;;;;;;;;;19.21;95.55;98333.93;1688352;84;20648;-87
2022/06/29 00:07:50;;;;;;;;;;;;;;;19.16;95.69;98342.60;1689712;83;20464;-83
2022/06/29 00:10:16;;;;;;;;;;;;;;;19.17;95.40;98343.41;1688790;85;20201;-87
2022/06/29 00:12:43;;;;;;;;;;;;;;;19.22;95.40;98330.05;1656264;85;20709;-83
2022/06/29 00:15:09;;;;;;;;;;;;;;;19.23;95.51;98313.26;1689677;84;20448;-83
2022/06/29 00:17:35;;;;;;;;;;;;;;;19.23;99.00;98299.52;1689870;83;21265;-88
2022/06/29 00:20:03;;;;;;;;;;;;;;;19.24;98.28;98298.39;1689457;84;20205;-83
2022/06/29 00:22:28;;;;;;;;;;;;;;;19.26;98.05;98302.17;1689720;85;20166;-88
2022/06/29 00:24:54;;;;;;;;;;;;;;;19.28;98.41;98302.07;1685015;84;20164;-87
2022/06/29 00:27:20;;;;;;;;;;;;;;;19.27;99.42;98295.53;1677763;84;20183;-83
2022/06/29 00:29:46;;;;;;;;;;;;;;;19.30;98.40;98296.23;1686362;85;21184;-83
2022/06/29 00:32:12;;;;;;;;;;;;;;;19.33;95.89;98294.23;1671248;84;20164;-88
2022/06/29 00:34:38;;;;;;;;;;;;;;;19.28;96.18;98298.52;1687901;85;20289;-88
2022/06/29 00:37:04;;;;;;;;;;;;;;;19.26;97.74;98297.48;1689649;83;20514;-88
2022/06/29 00:39:30;;;;;;;;;;;;;;;19.20;96.19;98293.30;1688104;84;20183;-88
2022/06/29 00:41:56;;;;;;;;;;;;;;;19.12;96.04;98291.39;1678120;83;21034;-83
2022/06/29 00:44:21;;;;;;;;;;;;;;;19.04;95.61;98286.73;1689259;84;21123;-83
2022/06/29 00:46:53;;;;;;;;;;;;;;;18.96;96.30;98280.13;1689647;85;20202;-83
2022/06/29 00:49:19;;;;;;;;;;;;;;;18.87;96.73;98282.91;1686501;85;20498;-88
2022/06/29 00:51:48;;;;;;;;;;;;;;;18.84;96.46;98275.91;1688770;84;20569;-82
2022/06/29 00:54:26;;;;;;;;;;;;;;;18.84;96.46;98271.78;1689821;85;21226;-83
2022/06/29 00:56:50;;;;;;;;;;;;;;;18.79;96.94;98267.27;1688894;85;20404;-88
2022/06/29 00:59:18;;;;;;;;;;;;;;;18.69;98.30;98270.36;1689822;85;20505;-87
2022/06/29 01:01:44;;;;;;;;;;;;;;;18.64;96.62;98265.60;1689541;85;20171;-89
2022/06/29 01:04:10;;;;;;;;;;;;;;;18.58;96.83;98270.44;1689850;84;20714;-83
2022/06/29 01:06:35;;;;;;;;;;;;;;;18.53;98.00;98261.80;1688851;85;21082;-83
2022/06/29 01:09:03;;;;;;;;;;;;;;;18.54;96.97;98259.86;1687545;85;20272;-88
2022/06/29 01:11:28;;;;;;;;;;;;;;;18.54;96.68;98263.44;1685795;85;20178;-88
2022/06/29 01:13:54;;;;;;;;;;;;;;;18.53;98.83;98266.48;1689806;85;20162;-83
2022/06/29 01:16:20;;;;;;;;;;;;;;;18.51;100.00;98253.67;1689703;85;20168;-82
2022/06/29 01:18:46;;;;;;;;;;;;;;;18.47;100.00;98244.48;1689820;83;20988;-88
2022/06/29 01:21:12;;;;;;;;;;;;;;;18.42;98.17;98244.65;1688273;84;20736;-83
2022/06/29 01:23:37;;;;;;;;;;;;;;;18.37;98.11;98248.92;1689658;85;20233;-88
2022/06/29 01:26:04;;;;;;;;;;;;;;;18.36;97.58;98249.48;1685372;84;20168;-83
2022/06/29 01:28:31;;;;;;;;;;;;;;;18.38;97.51;98249.19;1689639;85;20195;-87
2022/06/29 01:30:57;;;;;;;;;;;;;;;18.40;97.12;98251.03;1690181;85;21068;-83
2022/06/29 01:33:23;;;;;;;;;;;;;;;18.37;97.28;98256.58;1689561;83;20169;-88
2022/06/29 01:35:50;;;;;;;;;;;;;;;18.32;99.99;98256.20;1688442;85;20208;-82
2022/06/29 01:38:17;;;;;;;;;;;;;;;18.29;100.00;98252.75;1689726;83;20162;-83
2022/06/29 01:40:43;;;;;;;;;;;;;;;18.25;99.21;98250.96;1674375;85;20473;-86
2022/06/29 01:43:09;;;;;;;;;;;;;;;18.23;100.00;98253.23;1683911;83;21116;-82
2022/06/29 01:45:35;;;;;;;;;;;;;;;18.21;100.00;98240.41;1689870;85;20182;-87
2022/06/29 01:48:00;;;;;;;;;;;;;;;18.20;100.00;98242.35;1689787;83;20283;-88
2022/06/29 01:50:26;;;;;;;;;;;;;;;18.22;100.00;98241.45;1688299;84;20170;-84
2022/06/29 01:52:53;;;;;;;;;;;;;;;18.23;99.05;98229.34;1688573;83;20185;-87
2022/06/29 01:55:18;;;;;;;;;;;;;;;18.23;100.00;98230.72;1689761;84;21159;-87
2022/06/29 01:57:44;;;;;;;;;;;;;;;18.23;100.00;98227.17;1687226;84;20844;-88
2022/06/29 02:00:10;;;;;;;;;;;;;;;18.23;100.00;98225.80;1682908;84;20713;-88
2022/06/29 02:02:36;;;;;;;;;;;;;;;18.23;99.45;98230.72;1671776;85;20209;-83
2022/06/29 02:05:02;;;;;;;;;;;;;;;18.27;98.44;98240.47;1675352;82;20374;-87
2022/06/29 02:07:28;;;;;;;;;;;;;;;18.29;98.30;98234.92;1689062;83;21226;-83
2022/06/29 02:09:54;;;;;;;;;;;;;;;18.28;99.58;98231.10;1684575;84;20235;-83
2022/06/29 02:12:19;;;;;;;;;;;;;;;18.31;100.00;98238.13;1673419;85;20185;-87
2022/06/29 02:14:45;;;;;;;;;;;;;;;18.35;100.00;98242.39;1689539;84;20767;-83
2022/06/29 02:17:11;;;;;;;;;;;;;;;18.37;100.00;98242.86;1677152;84;20168;-83
2022/06/29 02:19:37;;;;;;;;;;;;;;;18.36;99.20;98233.03;1688358;84;21090;-83
2022/06/29 02:22:03;;;;;;;;;;;;;;;18.32;100.00;98235.63;1669500;83;20219;-83
2022/06/29 02:24:29;;;;;;;;;;;;;;;18.29;100.00;98236.86;1689842;85;20773;-87
2022/06/29 02:26:54;;;;;;;;;;;;;;;18.31;100.00;98227.73;1689547;84;20170;-83
2022/06/29 02:29:20;;;;;;;;;;;;;;;18.35;100.00;98231.98;1689872;85;20187;-83
2022/06/29 02:34:46;;;;;;;;;;;;;;;18.36;100.00;98221.25;1689142;84;20163;-83
2022/06/29 02:37:14;;;;;;;;;;;;;;;18.38;99.24;98206.67;1676610;85;20146;-83
2022/06/29 02:39:42;;;;;;;;;;;;;;;18.41;98.89;98215.61;1666205;84;20145;-87
2022/06/29 02:42:08;;;;;;;;;;;;;;;18.47;98.00;98221.17;1677365;85;20151;-84
2022/06/29 02:44:33;;;;;;;;;;;;;;;18.45;98.39;98223.41;1665187;84;21062;-83
2022/06/29 02:46:59;;;;;;;;;;;;;;;18.50;98.37;98224.05;1689598;83;20281;-83
2022/06/29 02:49:25;;;;;;;;;;;;;;;18.48;97.88;98224.95;1689999;84;20247;-83
2022/06/29 02:51:51;;;;;;;;;;;;;;;18.46;98.13;98231.91;1689721;84;20182;-83
2022/06/29 02:54:17;;;;;;;;;;;;;;;18.48;98.09;98216.72;1689938;85;20189;-82
2022/06/29 02:56:42;;;;;;;;;;;;;;;18.51;98.42;98213.31;1689666;83;21876;-87
2022/06/29 02:59:08;;;;;;;;;;;;;;;18.55;99.30;98202.51;1689788;84;20278;-83
2022/06/29 03:01:34;;;;;;;;;;;;;;;18.57;100.00;98200.23;1686234;84;20341;-83
2022/06/29 03:04:00;;;;;;;;;;;;;;;18.58;100.00;98194.41;1685981;85;20477;-86
2022/06/29 03:06:26;;;;;;;;;;;;;;;18.58;100.00;98193.61;1688442;84;20196;-83
2022/06/29 03:08:52;;;;;;;;;;;;;;;18.59;100.00;98186.98;1689758;83;21146;-87
2022/06/29 03:11:18;;;;;;;;;;;;;;;18.63;100.00;98181.63;1688382;84;20180;-87
2022/06/29 03:13:43;;;;;;;;;;;;;;;18.64;98.81;98181.33;1689659;83;20213;-83
2022/06/29 03:16:09;;;;;;;;;;;;;;;18.59;98.29;98178.19;1669571;84;20784;-83
2022/06/29 03:18:35;;;;;;;;;;;;;;;18.59;98.79;98176.01;1689853;83;20201;-88
2022/06/29 03:21:01;;;;;;;;;;;;;;;18.58;98.16;98167.54;1690043;84;21044;-83
2022/06/29 03:23:26;;;;;;;;;;;;;;;18.60;99.18;98174.30;1689639;84;20190;-82
2022/06/29 03:25:52;;;;;;;;;;;;;;;18.60;99.09;98178.42;1689909;85;20751;-87
2022/06/29 03:28:18;;;;;;;;;;;;;;;18.62;100.00;98172.59;1689636;83;20176;-87
2022/06/29 03:30:44;;;;;;;;;;;;;;;18.66;98.93;98169.48;1687767;84;20201;-83
2022/06/29 03:33:10;;;;;;;;;;;;;;;18.71;99.00;98169.28;1688969;85;21117;-82
2022/06/29 03:35:35;;;;;;;;;;;;;;;18.76;98.59;98174.59;1688064;84;20193;-87
2022/06/29 03:38:01;;;;;;;;;;;;;;;18.82;99.43;98171.12;1665175;85;20251;-88
2022/06/29 03:40:27;;;;;;;;;;;;;;;18.86;97.88;98172.86;1676762;84;20195;-83
2022/06/29 03:42:54;;;;;;;;;;;;;;;18.88;97.47;98170.61;1689857;83;20260;-82
2022/06/29 03:45:20;;;;;;;;;;;;;;;18.91;97.49;98169.70;1679084;84;21029;-83
2022/06/29 03:47:47;;;;;;;;;;;;;;;18.98;97.26;98167.25;1678959;83;20263;-88
2022/06/29 03:50:13;;;;;;;;;;;;;;;19.03;97.93;98160.98;1689795;84;20488;-83
2022/06/29 03:52:39;;;;;;;;;;;;;;;19.07;99.89;98161.14;1687066;84;20467;-82
2022/06/29 03:55:06;;;;;;;;;;;;;;;19.10;98.38;98157.72;1687519;85;20160;-87
2022/06/29 03:57:32;;;;;;;;;;;;;;;19.11;97.63;98153.83;1689697;83;21739;-88
2022/06/29 03:59:58;;;;;;;;;;;;;;;19.15;99.00;98154.80;1689741;85;20263;-83
2022/06/29 04:02:25;;;;;;;;;;;;;;;19.20;98.16;98150.47;1701090;82;20161;-83
2022/06/29 04:04:51;;;;;;;;;;;;;;;19.25;98.00;98157.16;1689746;85;20484;-88
2022/06/29 04:07:17;;;;;;;;;;;;;;;19.30;97.37;98161.63;1689473;85;20458;-88
2022/06/29 04:09:43;;;;;;;;;;;;;;;19.37;96.62;98161.34;1689481;84;21195;-87
2022/06/29 04:12:09;;;;;;;;;;;;;;;19.43;96.35;98158.64;1687078;85;20265;-87
2022/06/29 04:14:35;;;;;;;;;;;;;;;19.48;95.96;98155.44;1690959;84;20446;-87
2022/06/29 04:17:01;;;;;;;;;;;;;;;19.50;95.32;98159.48;1679158;85;20188;-87
2022/06/29 04:19:27;;;;;;;;;;;;;;;19.53;95.07;98160.75;1663894;85;20173;-87
2022/06/29 04:21:53;;;;;;;;;;;;;;;19.51;95.24;98158.34;1689675;83;21106;-84
2022/06/29 04:24:18;;;;;;;;;;;;;;;19.56;95.29;98155.95;1689389;85;20198;-83
2022/06/29 04:26:44;;;;;;;;;;;;;;;19.61;95.20;98161.29;1668037;84;20213;-85
2022/06/29 04:29:10;;;;;;;;;;;;;;;19.60;94.93;98154.98;1688108;85;20651;-84
2022/06/29 04:31:36;;;;;;;;;;;;;;;19.69;95.03;98160.42;1683797;84;20179;-88
2022/06/29 04:34:02;;;;;;;;;;;;;;;19.78;94.78;98158.39;1689873;85;21093;-88
2022/06/29 04:36:28;;;;;;;;;;;;;;;19.85;94.75;98155.91;1689676;84;20245;-87
2022/06/29 04:38:54;;;;;;;;;;;;;;;19.88;94.65;98156.60;1689685;85;20309;-88
2022/06/29 04:41:20;;;;;;;;;;;;;;;20.02;94.72;98156.91;1689593;84;20234;-88
2022/06/29 04:43:47;;;;;;;;;;;;;;;20.18;94.72;98160.62;1697620;83;20169;-88
2022/06/29 04:46:22;;;;;;;;;;;;;;;20.27;94.26;98160.77;1698891;83;21134;-88
2022/06/29 04:48:51;;;;;;;;;;;;;;;20.35;93.98;98159.07;1690262;84;20183;-83
2022/06/29 04:51:17;;;;;;;;;;;;;;;20.48;93.80;98159.92;1693694;84;20457;-88
2022/06/29 04:53:44;;;;;;;;;;;;;;;20.54;93.39;98162.69;1689627;83;20245;-87
2022/06/29 04:56:10;;;;;;;;;;;;;;;20.58;93.19;98158.09;1689505;83;20230;-88
2022/06/29 04:58:36;;;;;;;;;;;;;;;20.63;92.91;98163.97;1686002;84;21477;-88
2022/06/29 05:01:02;;;;;;;;;;;;;;;20.61;92.73;98167.06;1690899;84;20207;-87
2022/06/29 05:03:28;;;;;;;;;;;;;;;20.65;92.81;98162.47;1699904;83;20211;-87
2022/06/29 05:05:53;;;;;;;;;;;;;;;20.70;92.63;98158.70;1660735;84;20365;-87
2022/06/29 05:08:19;;;;;;;;;;;;;;;20.70;91.98;98159.50;1686239;85;20201;-83
2022/06/29 05:10:45;;;;;;;;;;;;;;;20.80;92.24;98161.00;1689881;85;21087;-83
2022/06/29 05:13:11;;;;;;;;;;;;;;;20.92;92.11;98165.13;1689551;83;20178;-87
2022/06/29 05:15:37;;;;;;;;;;;;;;;21.00;91.50;98164.20;1690333;84;20173;-83
2022/06/29 05:18:03;;;;;;;;;;;;;;;20.98;91.33;98165.13;1689078;84;20249;-88
2022/06/29 05:20:29;;;;;;;;;;;;;;;21.06;91.21;98162.84;1690534;83;20180;-87
2022/06/29 05:22:55;;;;;;;;;;;;;;;21.19;91.10;98166.38;1693014;83;21195;-84
2022/06/29 05:25:21;;;;;;;;;;;;;;;21.20;90.86;98161.70;1680065;84;20295;-87
2022/06/29 05:27:47;;;;;;;;;;;;;;;21.25;90.80;98165.58;1678982;83;20229;-83
2022/06/29 05:30:13;;;;;;;;;;;;;;;21.45;90.69;98160.55;1689871;84;20163;-87
2022/06/29 05:32:38;;;;;;;;;;;;;;;21.56;90.33;98165.79;1689763;83;20162;-87
2022/06/29 05:35:05;;;;;;;;;;;;;;;21.78;89.71;98158.94;1689619;83;21098;-83
2022/06/29 05:37:31;;;;;;;;;;;;;;;21.93;89.60;98160.95;1691360;83;20149;-88
2022/06/29 05:39:57;;;;;;;;;;;;;;;22.19;88.98;98159.73;1689179;84;20311;-87
2022/06/29 05:42:23;;;;;;;;;;;;;;;22.35;87.74;98158.38;1689425;83;20164;-84
2022/06/29 05:44:49;;;;;;;;;;;;;;;22.21;87.10;98151.89;1685028;85;20202;-88
2022/06/29 05:47:14;;;;;;;;;;;;;;;22.36;88.12;98146.18;1688059;83;21094;-83
2022/06/29 05:49:40;;;;;;;;;;;;;;;22.56;87.98;98138.25;1689814;84;20170;-88
2022/06/29 05:52:07;;;;;;;;;;;;;;;22.83;87.55;98138.52;1680594;84;20254;-88
2022/06/29 05:54:33;;;;;;;;;;;;;;;23.05;87.26;98137.30;1686846;84;20170;-88
2022/06/29 05:56:58;;;;;;;;;;;;;;;23.22;86.49;98142.22;1685077;83;20218;-87
2022/06/29 05:59:24;;;;;;;;;;;;;;;23.35;86.09;98150.05;1685949;83;21077;-88
2022/06/29 06:01:50;;;;;;;;;;;;;;;23.45;85.03;98150.64;1685525;84;20186;-87
2022/06/29 06:04:16;;;;;;;;;;;;;;;23.56;85.72;98146.14;1686246;84;20887;-87
2022/06/29 06:06:41;;;;;;;;;;;;;;;23.53;84.28;98146.88;1686815;83;20619;-88
2022/06/29 06:09:07;;;;;;;;;;;;;;;23.51;82.82;98147.24;1686641;83;20198;-87
2022/06/29 06:11:33;;;;;;;;;;;;;;;23.64;83.10;98152.08;1687263;83;21221;-87
2022/06/29 06:13:59;;;;;;;;;;;;;;;23.86;84.00;98156.91;1685698;84;20508;-86
2022/06/29 06:16:25;;;;;;;;;;;;;;;23.98;83.89;98151.00;1687731;84;20209;-88
2022/06/29 06:18:50;;;;;;;;;;;;;;;23.99;82.55;98143.70;1682615;84;20622;-83
2022/06/29 06:21:16;;;;;;;;;;;;;;;24.07;81.97;98141.88;1683754;83;20291;-83
2022/06/29 06:23:42;;;;;;;;;;;;;;;24.10;81.60;98141.97;1685867;84;21066;-83
2022/06/29 06:26:08;;;;;;;;;;;;;;;24.16;80.61;98145.22;1687700;84;20205;-83
2022/06/29 06:28:33;;;;;;;;;;;;;;;24.26;81.58;98151.55;1687145;84;20213;-83
2022/06/29 06:30:59;;;;;;;;;;;;;;;24.33;81.73;98146.17;1679425;84;20178;-83
2022/06/29 06:33:25;;;;;;;;;;;;;;;24.34;79.13;98146.39;1683464;83;20182;-83
2022/06/29 06:35:51;;;;;;;;;;;;;;;24.34;80.02;98136.70;1688274;83;21148;-83
2022/06/29 06:38:17;;;;;;;;;;;;;;;24.37;79.68;98136.56;1684520;83;20201;-84
2022/06/29 06:43:27;;;;;;;;;;;;;;;24.46;77.69;98139.89;1669887;84;20237;-84
2022/06/29 06:45:53;;;;;;;;;;;;;;;24.59;77.68;98141.88;1679751;83;20257;-83
2022/06/29 06:48:19;;;;;;;;;;;;;;;24.87;76.97;98136.84;1684010;83;21077;-83
2022/06/29 06:50:44;;;;;;;;;;;;;;;24.89;75.80;98136.47;1685703;83;20181;-83
2022/06/29 06:53:10;;;;;;;;;;;;;;;25.17;77.39;98125.84;1688679;83;20273;-83
2022/06/29 06:55:36;;;;;;;;;;;;;;;25.33;75.95;98121.52;1687754;83;20315;-83
2022/06/29 06:58:02;;;;;;;;;;;;;;;25.46;75.53;98125.66;1687942;84;20190;-83
2022/06/29 07:00:28;;;;;;;;;;;;;;;25.75;73.46;98123.30;1687690;84;21806;-83
2022/06/29 07:02:54;;;;;;;;;;;;;;;25.55;69.32;98128.14;1687298;83;20167;-83
2022/06/29 07:05:20;;;;;;;;;;;;;;;25.75;71.80;98125.48;1687741;84;20231;-83
2022/06/29 07:07:46;;;;;;;;;;;;;;;26.00;71.55;98123.02;1683233;83;20248;-83
2022/06/29 07:10:11;;;;;;;;;;;;;;;26.06;71.73;98129.83;1688017;83;20237;-89
2022/06/29 07:12:38;;;;;;;;;;;;;;;25.78;67.86;98134.44;1685471;83;21129;-89
2022/06/29 07:15:04;;;;;;;;;;;;;;;25.93;68.02;98134.02;1683533;83;20472;-89
2022/06/29 07:17:30;;;;;;;;;;;;;;;26.14;66.80;98139.02;1687510;83;20167;-88
2022/06/29 07:19:56;;;;;;;;;;;;;;;26.33;68.37;98136.66;1681436;84;20261;-89
2022/06/29 07:22:22;;;;;;;;;;;;;;;26.58;68.03;98131.38;1684089;83;20251;-88
2022/06/29 07:24:48;;;;;;;;;;;;;;;26.64;66.60;98126.45;1685246;84;21020;-88
2022/06/29 07:27:13;;;;;;;;;;;;;;;26.48;65.21;98124.52;1687112;82;20275;-89
2022/06/29 07:29:39;;;;;;;;;;;;;;;26.52;64.78;98124.57;1687125;84;21123;-89
2022/06/29 07:32:06;;;;;;;;;;;;;;;26.76;65.85;98114.27;1667366;84;20334;-89
2022/06/29 07:34:31;;;;;;;;;;;;;;;26.97;66.16;98120.58;1686468;84;20517;-89
2022/06/29 07:36:57;;;;;;;;;;;;;;;26.77;63.34;98130.35;1686936;83;21995;-84
2022/06/29 07:39:23;;;;;;;;;;;;;;;26.88;63.75;98121.50;1687629;84;20316;-84
2022/06/29 07:41:49;;;;;;;;;;;;;;;26.93;63.37;98115.59;1688068;83;20271;-84
2022/06/29 07:44:14;;;;;;;;;;;;;;;27.02;63.87;98107.72;1687778;84;20200;-83
2022/06/29 07:46:40;;;;;;;;;;;;;;;27.14;63.71;98111.59;1686278;83;20172;-84
2022/06/29 07:49:06;;;;;;;;;;;;;;;27.22;63.98;98111.05;1686774;83;21092;-84
2022/06/29 07:51:32;;;;;;;;;;;;;;;27.26;65.00;98105.73;1684031;83;20192;-83
2022/06/29 07:53:57;;;;;;;;;;;;;;;27.23;63.72;98102.31;1682359;84;20410;-84
2022/06/29 07:56:23;;;;;;;;;;;;;;;27.16;64.57;98100.88;1682357;83;20529;-84
2022/06/29 07:58:49;;;;;;;;;;;;;;;27.22;63.75;98102.11;1687321;84;20233;-84
2022/06/29 08:01:15;;;;;;;;;;;;;;;26.95;63.75;98097.93;1686876;83;21308;-84
2022/06/29 08:03:40;;;;;;;;;;;;;;;27.19;63.55;98094.55;1688295;83;20248;-84
2022/06/29 08:06:06;;;;;;;;;;;;;;;27.78;62.45;98093.09;1687852;83;20217;-84
2022/06/29 08:08:32;;;;;;;;;;;;;;;28.37;62.23;98086.69;1677794;84;20150;-89
2022/06/29 08:10:58;;;;;;;;;;;;;;;29.08;60.12;98083.94;1686173;84;20180;-87
2022/06/29 08:13:23;;;;;;;;;;;;;;;29.75;60.33;98084.97;1687344;83;21117;-89
2022/06/29 08:15:49;;;;;;;;;;;;;;;30.10;54.95;98085.42;1663256;85;20192;-89
2022/06/29 08:18:15;;;;;;;;;;;;;;;30.68;55.62;98083.03;1683867;83;20321;-89
2022/06/29 08:20:42;;;;;;;;;;;;;;;31.08;52.24;98079.47;1683912;84;20245;-89
2022/06/29 08:23:08;;;;;;;;;;;;;;;31.38;52.57;98073.81;1688479;80;20227;-84
2022/06/29 08:25:34;;;;;;;;;;;;;;;31.42;50.33;98073.16;1682970;83;21806;-85
2022/06/29 08:28:01;;;;;;;;;;;;;;;31.96;51.87;98066.30;1687127;83;20234;-85
2022/06/29 08:30:26;;;;;;;;;;;;;;;31.28;50.92;98055.14;1682115;84;20196;-85
2022/06/29 08:32:52;;;;;;;;;;;;;;;31.47;51.07;98050.31;1684780;83;20266;-85
2022/06/29 08:35:18;;;;;;;;;;;;;;;32.24;53.71;98046.90;1685768;84;20163;-85
2022/06/29 08:37:44;;;;;;;;;;;;;;;32.57;51.47;98052.83;1687370;83;21151;-85
2022/06/29 08:40:11;;;;;;;;;;;;;;;32.87;50.43;98048.52;1689544;83;20188;-85
2022/06/29 08:42:37;;;;;;;;;;;;;;;33.09;49.74;98048.94;1685800;83;20147;-85
2022/06/29 08:45:07;;;;;;;;;;;;;;;33.22;48.26;98044.26;1684477;83;20191;-85
2022/06/29 08:47:33;;;;;;;;;;;;;;;33.15;47.68;98038.77;1685243;83;20167;-85
2022/06/29 08:49:59;;;;;;;;;;;;;;;33.04;46.25;98042.41;1685638;84;21083;-85
2022/06/29 08:52:25;;;;;;;;;;;;;;;32.88;46.34;98038.09;1686345;83;20273;-85
2022/06/29 08:54:52;;;;;;;;;;;;;;;33.53;47.06;98037.08;1686771;84;20214;-85
2022/06/29 08:57:18;;;;;;;;;;;;;;;34.12;46.05;98037.02;1682394;83;20386;-85
2022/06/29 08:59:44;;;;;;;;;;;;;;;34.10;43.93;98041.50;1683931;85;20726;-85
2022/06/29 09:02:10;;;;;;;;;;;;;;;34.74;46.12;98035.13;1687101;83;21155;-85
2022/06/29 09:04:36;;;;;;;;;;;;;;;35.01;44.67;98023.58;1679952;83;21311;-85
2022/06/29 09:07:02;;;;;;;;;;;;;;;35.03;41.84;98034.39;1685327;83;20185;-85
2022/06/29 09:09:28;;;;;;;;;;;;;;;35.36;43.29;98027.27;1687471;84;20239;-85
2022/06/29 09:11:54;;;;;;;;;;;;;;;35.67;40.54;98026.20;1677816;83;20265;-85
2022/06/29 09:14:21;;;;;;;;;;;;;;;35.13;40.85;98038.18;1683713;83;21806;-85
2022/06/29 09:16:56;;;;;;;;;;;;;;;35.50;42.33;98029.72;1685281;83;20223;-86
2022/06/29 09:19:25;;;;;;;;;;;;;;;36.09;42.05;98032.60;1653751;85;20456;-85
2022/06/29 09:21:52;;;;;;;;;;;;;;;36.10;41.30;98030.73;1688635;83;20233;-85
2022/06/29 09:24:21;;;;;;;;;;;;;;;36.57;42.23;98027.22;1683060;83;20155;-85
2022/06/29 09:26:55;;;;;;;;;;;;;;;36.34;40.81;98019.91;1684100;83;21300;-86
2022/06/29 09:29:24;;;;;;;;;;;;;;;36.84;42.23;98020.33;1686003;83;20255;-85
2022/06/29 09:32:09;;;;;;;;;;;;;;;36.30;40.22;98014.98;1685646;83;20441;-85
2022/06/29 09:34:37;;;;;;;;;;;;;;;36.75;39.57;98013.13;1684423;84;20372;-85
2022/06/29 09:37:06;;;;;;;;;;;;;;;37.35;40.51;98011.06;1686944;83;20555;-86
2022/06/29 09:39:39;;;;;;;;;;;;;;;37.77;39.82;98011.52;1686860;84;21042;-86
2022/06/29 09:42:06;;;;;;;;;;;;;;;37.81;37.27;98004.30;1682158;84;20207;-85
2022/06/29 09:44:33;;;;;;;;;;;;;;;38.10;38.65;98004.73;1686559;84;20182;-86
2022/06/29 09:46:58;;;;;;;;;;;;;;;38.20;36.69;98007.59;1685474;83;20603;-86
2022/06/29 09:49:26;;;;;;;;;;;;;;;38.15;36.14;98009.02;1686614;84;20202;-86
2022/06/29 09:51:54;;;;;;;;;;;;;;;38.48;36.73;98006.48;1687335;83;21711;-86
2022/06/29 09:54:20;;;;;;;;;;;;;;;38.61;35.62;98005.70;1687309;85;20234;-86
2022/06/29 09:56:49;;;;;;;;;;;;;;;38.42;35.36;98003.31;1686256;83;20234;-86
2022/06/29 10:02:34;;;;;;;;;;;;;;;39.52;35.82;98002.79;1674919;83;20154;-85
2022/06/29 10:05:01;;;;;;;;;;;;;;;38.55;33.97;98009.02;1685924;84;21206;-86
2022/06/29 10:07:31;;;;;;;;;;;;;;;39.09;33.93;98000.44;1680326;84;20462;-86
2022/06/29 10:10:00;;;;;;;;;;;;;;;38.45;34.21;98000.95;1664145;85;20195;-86
2022/06/29 10:15:40;;;;;;;;;;;;;;;37.97;35.20;97999.05;1682445;84;20194;-86
2022/06/29 10:18:15;;;;;;;;;;;;;;;38.33;34.64;97994.95;1688820;83;20998;-86
2022/06/29 10:20:47;;;;;;;;;;;;;;;38.47;33.98;98002.08;1687108;84;20162;-86
2022/06/29 10:23:49;;;;;;;;;;;;;;;39.59;34.85;98003.13;1686326;83;20511;-86
2022/06/29 10:26:31;;;;;;;;;;;;;;;40.02;33.37;97999.08;1686543;83;20174;-86
2022/06/29 10:29:08;;;;;;;;;;;;;;;39.61;32.22;98005.63;1687108;84;20230;-86
2022/06/29 10:31:59;;;;;;;;;;;;;;;39.36;32.21;97986.13;1668385;83;21377;-86
2022/06/29 10:34:37;;;;;;;;;;;;;;;39.76;32.49;97983.86;1687426;84;20496;-86
2022/06/29 10:37:05;;;;;;;;;;;;;;;38.49;32.95;97991.70;1687872;83;20175;-86
2022/06/29 10:39:52;;;;;;;;;;;;;;;39.13;33.70;97986.92;1687304;83;20194;-86
2022/06/29 10:45:13;;;;;;;;;;;;;;;38.79;32.62;97980.13;1684541;84;22087;-86
2022/06/29 10:47:39;;;;;;;;;;;;;;;39.93;32.20;97972.93;1687449;83;20351;-86
2022/06/29 10:50:19;;;;;;;;;;;;;;;40.51;31.43;97970.33;1687081;83;20483;-86
2022/06/29 10:52:45;;;;;;;;;;;;;;;39.62;31.71;97972.40;1686234;84;20203;-86
2022/06/29 10:55:11;;;;;;;;;;;;;;;38.93;33.90;97980.30;1684537;84;20196;-86
2022/06/29 10:57:38;;;;;;;;;;;;;;;39.48;33.14;97970.38;1682582;83;21760;-86
2022/06/29 11:00:09;;;;;;;;;;;;;;;39.69;32.27;97970.02;1687105;84;20140;-86
2022/06/29 11:02:35;;;;;;;;;;;;;;;39.67;32.67;97967.52;1683056;84;20454;-86
2022/06/29 11:05:00;;;;;;;;;;;;;;;40.53;31.15;97973.46;1686376;83;20602;-86
2022/06/29 11:12:55;;;;;;;;;;;;;;;41.72;29.87;97961.75;1686062;83;20473;-86
2022/06/29 11:15:39;;;;;;;;;;;;;;;41.74;28.83;97954.92;1686716;84;20852;-90
2022/06/29 11:18:12;;;;;;;;;;;;;;;41.67;28.53;97949.59;1685475;83;20824;-89
2022/06/29 11:20:40;;;;;;;;;;;;;;;41.34;28.99;97948.38;1685667;83;20237;-90
2022/06/29 11:23:10;;;;;;;;;;;;;;;42.19;29.57;97948.52;1706815;82;21158;-90
2022/06/29 11:25:38;;;;;;;;;;;;;;;42.28;28.48;97946.19;1678532;84;20234;-91
2022/06/29 11:28:04;;;;;;;;;;;;;;;40.80;29.21;97946.14;1680073;84;20229;-86
2022/06/29 11:30:30;;;;;;;;;;;;;;;41.72;29.23;97946.75;1678417;85;20337;-86
2022/06/29 11:32:56;;;;;;;;;;;;;;;41.52;28.62;97940.28;1708035;82;20195;-86
2022/06/29 11:35:23;;;;;;;;;;;;;;;41.61;28.93;97940.18;1702264;82;21071;-86
2022/06/29 11:37:53;;;;;;;;;;;;;;;40.09;30.36;97938.39;1682375;84;20163;-87
2022/06/29 11:40:34;;;;;;;;;;;;;;;39.66;30.45;97933.34;1680382;85;20214;-90
2022/06/29 11:43:12;;;;;;;;;;;;;;;38.20;33.11;97927.80;1680008;83;20279;-89
2022/06/29 11:45:40;;;;;;;;;;;;;;;36.35;36.62;97931.84;1659901;82;20237;-88
2022/06/29 11:48:25;;;;;;;;;;;;;;;36.58;36.76;97934.93;1673873;83;21092;-90
2022/06/29 11:50:52;;;;;;;;;;;;;;;36.27;37.54;97933.33;1679918;84;20347;-88
2022/06/29 11:53:47;;;;;;;;;;;;;;;36.90;37.01;97930.97;1682332;83;20483;-90
2022/06/29 11:56:15;;;;;;;;;;;;;;;37.04;36.58;97926.85;1681423;85;20775;-90
2022/06/29 11:58:44;;;;;;;;;;;;;;;37.66;34.86;97933.37;1665580;84;20722;-91
2022/06/29 12:01:11;;;;;;;;;;;;;;;36.71;36.34;97934.24;1682700;83;21201;-90
2022/06/29 12:03:38;;;;;;;;;;;;;;;36.08;37.46;97935.95;1682116;85;20253;-91
2022/06/29 12:06:04;;;;;;;;;;;;;;;34.82;39.83;97935.05;1663489;84;20240;-89
2022/06/29 12:08:30;;;;;;;;;;;;;;;34.19;40.68;97938.45;1655445;85;20256;-89
2022/06/29 12:10:57;;;;;;;;;;;;;;;33.34;41.77;97938.35;1659544;84;20243;-90
2022/06/29 12:13:23;;;;;;;;;;;;;;;32.61;43.48;97930.95;1681930;83;21124;-89
2022/06/29 12:15:49;;;;;;;;;;;;;;;32.27;45.82;97932.52;1686968;84;21137;-89
2022/06/29 12:18:16;;;;;;;;;;;;;;;31.94;45.39;97919.64;1682487;84;20151;-90
2022/06/29 12:20:43;;;;;;;;;;;;;;;31.65;46.73;97914.27;1687475;84;20163;-85
2022/06/29 12:23:09;;;;;;;;;;;;;;;31.36;49.15;97913.87;1680213;84;20245;-84
2022/06/29 12:25:36;;;;;;;;;;;;;;;31.12;49.35;97917.97;1677237;84;21128;-85
2022/06/29 12:28:02;;;;;;;;;;;;;;;30.53;52.55;97918.20;1687428;83;20222;-85
2022/06/29 12:30:29;;;;;;;;;;;;;;;30.40;52.44;97921.91;1687230;83;20193;-85
2022/06/29 12:32:54;;;;;;;;;;;;;;;30.36;52.70;97921.96;1684521;83;20208;-85
2022/06/29 12:35:20;;;;;;;;;;;;;;;30.29;53.02;97916.43;1676152;83;20277;-85
2022/06/29 12:37:46;;;;;;;;;;;;;;;30.20;53.52;97919.70;1687233;83;21054;-85
2022/06/29 12:40:12;;;;;;;;;;;;;;;30.18;54.39;97911.55;1686578;84;20201;-84
2022/06/29 12:42:38;;;;;;;;;;;;;;;30.20;53.96;97911.33;1687008;84;20210;-84
2022/06/29 12:45:05;;;;;;;;;;;;;;;30.36;52.88;97905.19;1682265;83;20516;-85
2022/06/29 12:47:31;;;;;;;;;;;;;;;30.09;54.62;97903.65;1679546;83;20245;-85
2022/06/29 12:49:57;;;;;;;;;;;;;;;30.37;54.34;97908.78;1688925;83;21090;-85
2022/06/29 12:52:23;;;;;;;;;;;;;;;30.49;53.26;97912.44;1686222;83;20221;-85
2022/06/29 12:54:49;;;;;;;;;;;;;;;32.11;49.36;97913.56;1685686;84;20872;-85
2022/06/29 12:57:18;;;;;;;;;;;;;;;33.61;46.04;97919.93;1686210;84;20542;-85
2022/06/29 12:59:43;;;;;;;;;;;;;;;34.42;43.76;97920.61;1687140;84;20195;-85
2022/06/29 13:02:09;;;;;;;;;;;;;;;33.90;44.21;97917.27;1680095;83;20928;-85
2022/06/29 13:04:35;;;;;;;;;;;;;;;33.70;44.88;97911.52;1686438;83;20289;-85